GCLA Airport Information

Runway Information
Runway 01 Length 7218 ft width 148 ft
Elevation 103 ft Threshold 0 ft Heading 359
Runway 19 Length 7218 ft Width 148 ft
Elevation 65 ft Threshold 0 ft Heading 179
Airport Frequencies
Type APP Name CANARIAS A Frequency 126.1 MHZ
Type ATIS Name INFO Frequency 118.6 MHZ
Type GND Name GND Frequency 121.8 MHZ
Type TWR Name TWR Frequency 118.9 MHZ
Airport Navaids
Type DME Name La Palma Frequency 112400 KHZ
Type NDB Name La Palma Frequency 389 KHZ
Airport Weather Information & NOTAM
ADDS - METARS form results

(1911 UTC 22 June 2018)
 
METAR text: GCLA 221900Z 02008KT 350V070 9999 BKN025 21/16 Q1020
Conditions at: GCLA (LA PALMA AIRPORT, ES) observed 1900 UTC 22 June 2018
Temperature: 21.0°C (70°F)
Dewpoint: 16.0°C (61°F) [RH = 73%]
Pressure (altimeter): 30.12 inches Hg (1020.0 mb)
Winds: from the NNE (20 degrees) at 9 MPH (8 knots; 4.2 m/s)
Visibility: 6 or more miles (10+ km)
Ceiling: 2500 feet AGL
Clouds: broken clouds at 2500 feet AGL
Weather: no significant weather observed at this time

METAR text: GCLA 221830Z 03009KT 9999 BKN025 21/15 Q1020
Conditions at: GCLA (LA PALMA AIRPORT, ES) observed 1830 UTC 22 June 2018
Temperature: 21.0°C (70°F)
Dewpoint: 15.0°C (59°F) [RH = 69%]
Pressure (altimeter): 30.12 inches Hg (1020.0 mb)
Winds: from the NNE (30 degrees) at 10 MPH (9 knots; 4.7 m/s)
Visibility: 6 or more miles (10+ km)
Ceiling: 2500 feet AGL
Clouds: broken clouds at 2500 feet AGL
Weather: no significant weather observed at this time